sensor_id;sensor_type;location;lat;lon;timestamp;P1;durP1;ratioP1;P2;durP2;ratioP2
57575;SDS011;43412;-33.800;150.804;2022-08-02T00:00:57;4.20;;;1.05;;
57575;SDS011;43412;-33.800;150.804;2022-08-02T00:03:24;3.30;;;0.85;;
57575;SDS011;43412;-33.800;150.804;2022-08-02T00:05:52;5.68;;;1.25;;
57575;SDS011;43412;-33.800;150.804;2022-08-02T00:08:20;2.63;;;0.80;;
57575;SDS011;43412;-33.800;150.804;2022-08-02T00:10:47;4.20;;;1.60;;
57575;SDS011;43412;-33.800;150.804;2022-08-02T00:13:15;4.47;;;0.93;;
57575;SDS011;43412;-33.800;150.804;2022-08-02T00:15:43;1.75;;;0.80;;
57575;SDS011;43412;-33.800;150.804;2022-08-02T00:18:10;10.88;;;1.80;;
57575;SDS011;43412;-33.800;150.804;2022-08-02T00:20:37;2.83;;;0.60;;
57575;SDS011;43412;-33.800;150.804;2022-08-02T00:23:05;1.60;;;0.70;;
57575;SDS011;43412;-33.800;150.804;2022-08-02T00:25:33;3.38;;;0.35;;
57575;SDS011;43412;-33.800;150.804;2022-08-02T00:28:00;2.17;;;0.50;;
57575;SDS011;43412;-33.800;150.804;2022-08-02T00:30:27;0.68;;;0.38;;
57575;SDS011;43412;-33.800;150.804;2022-08-02T00:32:55;1.88;;;0.30;;
57575;SDS011;43412;-33.800;150.804;2022-08-02T00:35:23;0.68;;;0.40;;
57575;SDS011;43412;-33.800;150.804;2022-08-02T00:37:50;3.05;;;0.40;;
57575;SDS011;43412;-33.800;150.804;2022-08-02T00:40:20;0.90;;;0.30;;
57575;SDS011;43412;-33.800;150.804;2022-08-02T00:43:10;1.13;;;0.52;;
57575;SDS011;43412;-33.800;150.804;2022-08-02T00:45:37;0.75;;;0.30;;
57575;SDS011;43412;-33.800;150.804;2022-08-02T00:48:07;1.27;;;0.20;;
57575;SDS011;43412;-33.800;150.804;2022-08-02T00:50:35;0.82;;;0.20;;
57575;SDS011;43412;-33.800;150.804;2022-08-02T00:53:04;0.70;;;0.15;;
57575;SDS011;43412;-33.800;150.804;2022-08-02T00:55:34;2.30;;;0.35;;
57575;SDS011;43412;-33.800;150.804;2022-08-02T00:58:02;0.57;;;0.57;;
57575;SDS011;43412;-33.800;150.804;2022-08-02T01:00:30;0.55;;;0.13;;
57575;SDS011;43412;-33.800;150.804;2022-08-02T01:02:57;0.50;;;0.15;;
57575;SDS011;43412;-33.800;150.804;2022-08-02T01:05:24;1.13;;;0.20;;
57575;SDS011;43412;-33.800;150.804;2022-08-02T01:07:52;0.60;;;0.10;;
57575;SDS011;43412;-33.800;150.804;2022-08-02T01:10:19;0.22;;;0.15;;
57575;SDS011;43412;-33.800;150.804;2022-08-02T01:12:47;1.55;;;0.20;;
57575;SDS011;43412;-33.800;150.804;2022-08-02T01:15:14;0.25;;;0.10;;
57575;SDS011;43412;-33.800;150.804;2022-08-02T01:26:12;0.28;;;0.20;;
57575;SDS011;43412;-33.800;150.804;2022-08-02T01:29:03;1.80;;;0.27;;
57575;SDS011;43412;-33.800;150.804;2022-08-02T01:31:54;0.30;;;0.10;;
57575;SDS011;43412;-33.800;150.804;2022-08-02T01:34:52;0.65;;;0.20;;
57575;SDS011;43412;-33.800;150.804;2022-08-02T01:37:26;0.65;;;0.20;;
57575;SDS011;43412;-33.800;150.804;2022-08-02T01:40:02;0.60;;;0.10;;
57575;SDS011;43412;-33.800;150.804;2022-08-02T01:42:36;0.40;;;0.38;;
57575;SDS011;43412;-33.800;150.804;2022-08-02T01:45:06;1.10;;;0.20;;
57575;SDS011;43412;-33.800;150.804;2022-08-02T01:47:37;1.23;;;0.60;;
57575;SDS011;43412;-33.800;150.804;2022-08-02T01:50:06;0.30;;;0.10;;
57575;SDS011;43412;-33.800;150.804;2022-08-02T01:52:38;0.35;;;0.10;;
57575;SDS011;43412;-33.800;150.804;2022-08-02T01:55:27;1.13;;;0.30;;
57575;SDS011;43412;-33.800;150.804;2022-08-02T01:58:02;3.25;;;0.32;;
57575;SDS011;43412;-33.800;150.804;2022-08-02T02:00:34;2.63;;;0.30;;
57575;SDS011;43412;-33.800;150.804;2022-08-02T02:03:05;0.57;;;0.57;;
57575;SDS011;43412;-33.800;150.804;2022-08-02T02:05:35;1.00;;;0.20;;
57575;SDS011;43412;-33.800;150.804;2022-08-02T02:08:04;2.05;;;0.20;;
57575;SDS011;43412;-33.800;150.804;2022-08-02T02:10:34;0.10;;;0.10;;
57575;SDS011;43412;-33.800;150.804;2022-08-02T02:13:04;1.40;;;0.13;;
57575;SDS011;43412;-33.800;150.804;2022-08-02T02:15:34;0.65;;;0.30;;
57575;SDS011;43412;-33.800;150.804;2022-08-02T02:18:08;0.98;;;0.60;;
57575;SDS011;43412;-33.800;150.804;2022-08-02T02:20:40;0.65;;;0.10;;
57575;SDS011;43412;-33.800;150.804;2022-08-02T02:23:08;1.95;;;0.32;;
57575;SDS011;43412;-33.800;150.804;2022-08-02T02:25:37;1.23;;;0.35;;
57575;SDS011;43412;-33.800;150.804;2022-08-02T02:28:11;0.10;;;0.10;;
57575;SDS011;43412;-33.800;150.804;2022-08-02T02:31:12;5.45;;;0.40;;
57575;SDS011;43412;-33.800;150.804;2022-08-02T02:33:49;0.82;;;0.30;;
57575;SDS011;43412;-33.800;150.804;2022-08-02T02:36:22;2.70;;;0.28;;
57575;SDS011;43412;-33.800;150.804;2022-08-02T02:38:49;0.95;;;0.20;;
57575;SDS011;43412;-33.800;150.804;2022-08-02T02:41:18;0.88;;;0.47;;
57575;SDS011;43412;-33.800;150.804;2022-08-02T02:43:48;1.25;;;0.20;;
57575;SDS011;43412;-33.800;150.804;2022-08-02T02:46:18;1.83;;;0.32;;
57575;SDS011;43412;-33.800;150.804;2022-08-02T02:48:48;0.82;;;0.20;;
57575;SDS011;43412;-33.800;150.804;2022-08-02T02:51:17;0.57;;;0.20;;
57575;SDS011;43412;-33.800;150.804;2022-08-02T02:53:46;1.63;;;0.35;;
57575;SDS011;43412;-33.800;150.804;2022-08-02T02:56:16;2.72;;;0.28;;
57575;SDS011;43412;-33.800;150.804;2022-08-02T02:58:45;0.90;;;0.20;;
57575;SDS011;43412;-33.800;150.804;2022-08-02T03:01:13;1.38;;;0.10;;
57575;SDS011;43412;-33.800;150.804;2022-08-02T03:03:53;0.60;;;0.30;;
57575;SDS011;43412;-33.800;150.804;2022-08-02T03:06:22;0.47;;;0.20;;
57575;SDS011;43412;-33.800;150.804;2022-08-02T03:08:50;0.77;;;0.40;;
57575;SDS011;43412;-33.800;150.804;2022-08-02T03:11:17;1.95;;;0.57;;
57575;SDS011;43412;-33.800;150.804;2022-08-02T03:13:45;0.30;;;0.20;;
57575;SDS011;43412;-33.800;150.804;2022-08-02T03:16:13;0.38;;;0.00;;
57575;SDS011;43412;-33.800;150.804;2022-08-02T03:18:41;1.50;;;0.40;;
57575;SDS011;43412;-33.800;150.804;2022-08-02T03:21:12;2.05;;;0.20;;
57575;SDS011;43412;-33.800;150.804;2022-08-02T03:23:40;0.85;;;0.30;;
57575;SDS011;43412;-33.800;150.804;2022-08-02T03:26:08;0.28;;;0.20;;
57575;SDS011;43412;-33.800;150.804;2022-08-02T03:28:36;0.28;;;0.20;;
57575;SDS011;43412;-33.800;150.804;2022-08-02T03:31:03;0.30;;;0.10;;
57575;SDS011;43412;-33.800;150.804;2022-08-02T03:33:31;1.27;;;0.35;;
57575;SDS011;43412;-33.800;150.804;2022-08-02T03:36:04;0.45;;;0.20;;
57575;SDS011;43412;-33.800;150.804;2022-08-02T03:38:36;0.90;;;0.10;;
57575;SDS011;43412;-33.800;150.804;2022-08-02T03:41:06;1.08;;;0.20;;
57575;SDS011;43412;-33.800;150.804;2022-08-02T03:43:35;0.40;;;0.20;;
57575;SDS011;43412;-33.800;150.804;2022-08-02T03:46:04;0.63;;;0.10;;
57575;SDS011;43412;-33.800;150.804;2022-08-02T03:48:34;1.42;;;0.20;;
57575;SDS011;43412;-33.800;150.804;2022-08-02T03:51:03;0.93;;;0.20;;
57575;SDS011;43412;-33.800;150.804;2022-08-02T03:53:31;1.88;;;0.40;;
57575;SDS011;43412;-33.800;150.804;2022-08-02T03:56:00;0.73;;;0.20;;
57575;SDS011;43412;-33.800;150.804;2022-08-02T03:58:28;0.30;;;0.20;;
57575;SDS011;43412;-33.800;150.804;2022-08-02T04:00:56;0.35;;;0.10;;
57575;SDS011;43412;-33.800;150.804;2022-08-02T04:03:23;0.82;;;0.32;;
57575;SDS011;43412;-33.800;150.804;2022-08-02T04:05:52;0.88;;;0.30;;
57575;SDS011;43412;-33.800;150.804;2022-08-02T04:08:19;1.67;;;0.20;;
57575;SDS011;43412;-33.800;150.804;2022-08-02T04:10:47;1.45;;;0.50;;
57575;SDS011;43412;-33.800;150.804;2022-08-02T04:13:33;1.50;;;0.20;;
57575;SDS011;43412;-33.800;150.804;2022-08-02T04:16:22;3.45;;;0.30;;
57575;SDS011;43412;-33.800;150.804;2022-08-02T04:19:02;0.77;;;0.30;;
57575;SDS011;43412;-33.800;150.804;2022-08-02T04:21:34;0.55;;;0.20;;
57575;SDS011;43412;-33.800;150.804;2022-08-02T04:24:04;0.90;;;0.30;;
57575;SDS011;43412;-33.800;150.804;2022-08-02T04:26:33;0.63;;;0.25;;
57575;SDS011;43412;-33.800;150.804;2022-08-02T04:29:02;2.40;;;0.10;;
57575;SDS011;43412;-33.800;150.804;2022-08-02T04:31:30;0.32;;;0.13;;
57575;SDS011;43412;-33.800;150.804;2022-08-02T04:33:58;1.88;;;0.10;;
57575;SDS011;43412;-33.800;150.804;2022-08-02T04:36:26;0.17;;;0.10;;
57575;SDS011;43412;-33.800;150.804;2022-08-02T04:38:54;0.30;;;0.30;;
57575;SDS011;43412;-33.800;150.804;2022-08-02T04:41:22;1.70;;;0.20;;
57575;SDS011;43412;-33.800;150.804;2022-08-02T04:44:01;0.55;;;0.10;;
57575;SDS011;43412;-33.800;150.804;2022-08-02T04:46:28;1.35;;;0.10;;
57575;SDS011;43412;-33.800;150.804;2022-08-02T04:48:56;0.40;;;0.20;;
57575;SDS011;43412;-33.800;150.804;2022-08-02T04:51:23;0.30;;;0.20;;
57575;SDS011;43412;-33.800;150.804;2022-08-02T04:53:51;0.20;;;0.10;;
57575;SDS011;43412;-33.800;150.804;2022-08-02T04:56:18;0.30;;;0.20;;
57575;SDS011;43412;-33.800;150.804;2022-08-02T04:58:46;0.60;;;0.13;;
57575;SDS011;43412;-33.800;150.804;2022-08-02T05:01:13;0.40;;;0.10;;
57575;SDS011;43412;-33.800;150.804;2022-08-02T05:03:40;1.13;;;0.20;;
57575;SDS011;43412;-33.800;150.804;2022-08-02T05:06:08;0.35;;;0.20;;
57575;SDS011;43412;-33.800;150.804;2022-08-02T05:08:35;0.63;;;0.20;;
57575;SDS011;43412;-33.800;150.804;2022-08-02T05:11:03;0.20;;;0.13;;
57575;SDS011;43412;-33.800;150.804;2022-08-02T05:13:30;0.45;;;0.30;;
57575;SDS011;43412;-33.800;150.804;2022-08-02T05:15:57;1.80;;;0.20;;
57575;SDS011;43412;-33.800;150.804;2022-08-02T05:18:26;2.10;;;0.17;;
57575;SDS011;43412;-33.800;150.804;2022-08-02T05:20:54;0.50;;;0.20;;
57575;SDS011;43412;-33.800;150.804;2022-08-02T05:23:22;0.52;;;0.10;;
57575;SDS011;43412;-33.800;150.804;2022-08-02T05:25:49;1.85;;;0.20;;
57575;SDS011;43412;-33.800;150.804;2022-08-02T05:28:17;0.40;;;0.20;;
57575;SDS011;43412;-33.800;150.804;2022-08-02T05:30:44;2.88;;;0.45;;
57575;SDS011;43412;-33.800;150.804;2022-08-02T05:33:11;0.25;;;0.10;;
57575;SDS011;43412;-33.800;150.804;2022-08-02T05:35:39;0.25;;;0.10;;
57575;SDS011;43412;-33.800;150.804;2022-08-02T05:38:06;2.22;;;0.10;;
57575;SDS011;43412;-33.800;150.804;2022-08-02T05:40:34;1.13;;;0.20;;
57575;SDS011;43412;-33.800;150.804;2022-08-02T05:43:02;0.45;;;0.10;;
57575;SDS011;43412;-33.800;150.804;2022-08-02T05:45:36;0.77;;;0.20;;
57575;SDS011;43412;-33.800;150.804;2022-08-02T05:48:04;0.15;;;0.13;;
57575;SDS011;43412;-33.800;150.804;2022-08-02T05:50:37;0.77;;;0.10;;
57575;SDS011;43412;-33.800;150.804;2022-08-02T05:53:13;0.40;;;0.10;;
57575;SDS011;43412;-33.800;150.804;2022-08-02T05:55:46;0.95;;;0.28;;
57575;SDS011;43412;-33.800;150.804;2022-08-02T05:58:30;0.82;;;0.10;;
57575;SDS011;43412;-33.800;150.804;2022-08-02T06:01:09;0.22;;;0.20;;
57575;SDS011;43412;-33.800;150.804;2022-08-02T06:03:49;0.65;;;0.10;;
57575;SDS011;43412;-33.800;150.804;2022-08-02T06:06:18;0.85;;;0.15;;
57575;SDS011;43412;-33.800;150.804;2022-08-02T06:09:09;0.38;;;0.20;;
57575;SDS011;43412;-33.800;150.804;2022-08-02T06:11:42;0.57;;;0.20;;
57575;SDS011;43412;-33.800;150.804;2022-08-02T06:14:12;0.70;;;0.15;;
57575;SDS011;43412;-33.800;150.804;2022-08-02T06:16:39;0.75;;;0.40;;
57575;SDS011;43412;-33.800;150.804;2022-08-02T06:19:12;2.90;;;0.30;;
57575;SDS011;43412;-33.800;150.804;2022-08-02T06:21:40;0.38;;;0.22;;
57575;SDS011;43412;-33.800;150.804;2022-08-02T06:24:10;0.30;;;0.20;;
57575;SDS011;43412;-33.800;150.804;2022-08-02T06:26:38;0.77;;;0.30;;
57575;SDS011;43412;-33.800;150.804;2022-08-02T06:29:08;1.30;;;0.13;;
57575;SDS011;43412;-33.800;150.804;2022-08-02T06:31:39;0.10;;;0.10;;
57575;SDS011;43412;-33.800;150.804;2022-08-02T06:34:07;0.73;;;0.20;;
57575;SDS011;43412;-33.800;150.804;2022-08-02T06:37:09;0.25;;;0.20;;
57575;SDS011;43412;-33.800;150.804;2022-08-02T06:39:36;1.58;;;0.30;;
57575;SDS011;43412;-33.800;150.804;2022-08-02T06:42:16;1.17;;;0.20;;
57575;SDS011;43412;-33.800;150.804;2022-08-02T06:44:51;6.20;;;0.40;;
57575;SDS011;43412;-33.800;150.804;2022-08-02T06:47:19;3.72;;;0.20;;
57575;SDS011;43412;-33.800;150.804;2022-08-02T06:49:46;1.13;;;0.43;;
57575;SDS011;43412;-33.800;150.804;2022-08-02T06:52:13;10.75;;;0.63;;
57575;SDS011;43412;-33.800;150.804;2022-08-02T06:54:41;1.38;;;0.20;;
57575;SDS011;43412;-33.800;150.804;2022-08-02T06:57:08;2.53;;;0.35;;
57575;SDS011;43412;-33.800;150.804;2022-08-02T06:59:36;1.88;;;0.40;;
57575;SDS011;43412;-33.800;150.804;2022-08-02T07:02:03;1.40;;;0.35;;
57575;SDS011;43412;-33.800;150.804;2022-08-02T07:04:31;1.08;;;0.30;;
57575;SDS011;43412;-33.800;150.804;2022-08-02T07:06:59;1.13;;;0.20;;
57575;SDS011;43412;-33.800;150.804;2022-08-02T07:09:27;1.30;;;0.65;;
57575;SDS011;43412;-33.800;150.804;2022-08-02T07:11:54;0.75;;;0.28;;
57575;SDS011;43412;-33.800;150.804;2022-08-02T07:14:22;2.28;;;0.28;;
57575;SDS011;43412;-33.800;150.804;2022-08-02T07:16:49;4.60;;;0.40;;
57575;SDS011;43412;-33.800;150.804;2022-08-02T07:19:18;1.88;;;0.63;;
57575;SDS011;43412;-33.800;150.804;2022-08-02T07:21:45;2.97;;;0.65;;
57575;SDS011;43412;-33.800;150.804;2022-08-02T07:24:12;3.47;;;0.50;;
57575;SDS011;43412;-33.800;150.804;2022-08-02T07:26:40;1.77;;;0.50;;
57575;SDS011;43412;-33.800;150.804;2022-08-02T07:29:07;0.90;;;0.30;;
57575;SDS011;43412;-33.800;150.804;2022-08-02T07:31:35;1.50;;;0.75;;
57575;SDS011;43412;-33.800;150.804;2022-08-02T07:34:02;4.05;;;0.70;;
57575;SDS011;43412;-33.800;150.804;2022-08-02T07:36:29;1.20;;;0.40;;
57575;SDS011;43412;-33.800;150.804;2022-08-02T07:38:57;1.40;;;0.38;;
57575;SDS011;43412;-33.800;150.804;2022-08-02T07:41:24;1.02;;;0.60;;
57575;SDS011;43412;-33.800;150.804;2022-08-02T07:43:52;1.10;;;0.43;;
57575;SDS011;43412;-33.800;150.804;2022-08-02T07:46:19;2.72;;;0.43;;
57575;SDS011;43412;-33.800;150.804;2022-08-02T07:48:47;1.23;;;0.30;;
57575;SDS011;43412;-33.800;150.804;2022-08-02T07:51:14;1.77;;;0.80;;
57575;SDS011;43412;-33.800;150.804;2022-08-02T07:53:41;1.77;;;0.50;;
57575;SDS011;43412;-33.800;150.804;2022-08-02T07:56:09;1.27;;;0.90;;
57575;SDS011;43412;-33.800;150.804;2022-08-02T07:58:36;2.53;;;0.80;;
57575;SDS011;43412;-33.800;150.804;2022-08-02T08:01:03;0.93;;;0.30;;
57575;SDS011;43412;-33.800;150.804;2022-08-02T08:03:31;0.75;;;0.45;;
57575;SDS011;43412;-33.800;150.804;2022-08-02T08:05:58;0.85;;;0.40;;
57575;SDS011;43412;-33.800;150.804;2022-08-02T08:08:26;0.43;;;0.28;;
57575;SDS011;43412;-33.800;150.804;2022-08-02T08:10:53;0.68;;;0.30;;
57575;SDS011;43412;-33.800;150.804;2022-08-02T08:13:21;1.23;;;0.55;;
57575;SDS011;43412;-33.800;150.804;2022-08-02T08:15:48;3.55;;;0.35;;
57575;SDS011;43412;-33.800;150.804;2022-08-02T08:18:15;2.05;;;1.23;;
57575;SDS011;43412;-33.800;150.804;2022-08-02T08:20:43;3.13;;;0.57;;
57575;SDS011;43412;-33.800;150.804;2022-08-02T08:23:10;2.97;;;1.02;;
57575;SDS011;43412;-33.800;150.804;2022-08-02T08:25:37;3.60;;;0.82;;
57575;SDS011;43412;-33.800;150.804;2022-08-02T08:28:05;1.48;;;0.90;;
57575;SDS011;43412;-33.800;150.804;2022-08-02T08:30:32;2.83;;;1.27;;
57575;SDS011;43412;-33.800;150.804;2022-08-02T08:33:01;1.95;;;0.65;;
57575;SDS011;43412;-33.800;150.804;2022-08-02T08:35:29;5.43;;;1.92;;
57575;SDS011;43412;-33.800;150.804;2022-08-02T08:37:56;4.30;;;1.50;;
57575;SDS011;43412;-33.800;150.804;2022-08-02T08:40:24;2.13;;;1.25;;
57575;SDS011;43412;-33.800;150.804;2022-08-02T08:42:51;5.60;;;2.00;;
57575;SDS011;43412;-33.800;150.804;2022-08-02T08:45:19;8.00;;;1.98;;
57575;SDS011;43412;-33.800;150.804;2022-08-02T08:47:50;4.80;;;2.15;;
57575;SDS011;43412;-33.800;150.804;2022-08-02T08:50:25;9.88;;;2.55;;
57575;SDS011;43412;-33.800;150.804;2022-08-02T08:55:30;12.65;;;2.75;;
57575;SDS011;43412;-33.800;150.804;2022-08-02T08:57:59;9.02;;;3.25;;
57575;SDS011;43412;-33.800;150.804;2022-08-02T09:00:31;7.97;;;3.15;;
57575;SDS011;43412;-33.800;150.804;2022-08-02T09:03:03;5.90;;;3.22;;
57575;SDS011;43412;-33.800;150.804;2022-08-02T09:05:35;9.30;;;4.05;;
57575;SDS011;43412;-33.800;150.804;2022-08-02T09:08:04;5.43;;;2.88;;
57575;SDS011;43412;-33.800;150.804;2022-08-02T09:13:09;4.00;;;1.83;;
57575;SDS011;43412;-33.800;150.804;2022-08-02T09:15:37;6.97;;;2.03;;
57575;SDS011;43412;-33.800;150.804;2022-08-02T09:18:06;10.13;;;2.35;;
57575;SDS011;43412;-33.800;150.804;2022-08-02T09:20:49;4.00;;;2.30;;
57575;SDS011;43412;-33.800;150.804;2022-08-02T09:23:18;11.27;;;2.35;;
57575;SDS011;43412;-33.800;150.804;2022-08-02T09:26:00;4.85;;;1.70;;
57575;SDS011;43412;-33.800;150.804;2022-08-02T09:28:30;7.50;;;3.15;;
57575;SDS011;43412;-33.800;150.804;2022-08-02T09:31:03;4.70;;;2.00;;
57575;SDS011;43412;-33.800;150.804;2022-08-02T09:33:33;8.98;;;2.58;;
57575;SDS011;43412;-33.800;150.804;2022-08-02T09:36:06;4.20;;;1.75;;
57575;SDS011;43412;-33.800;150.804;2022-08-02T09:38:37;4.60;;;2.05;;
57575;SDS011;43412;-33.800;150.804;2022-08-02T09:41:06;4.13;;;1.92;;
57575;SDS011;43412;-33.800;150.804;2022-08-02T09:43:47;5.75;;;1.60;;
57575;SDS011;43412;-33.800;150.804;2022-08-02T09:46:15;4.10;;;1.83;;
57575;SDS011;43412;-33.800;150.804;2022-08-02T09:48:54;3.63;;;1.65;;
57575;SDS011;43412;-33.800;150.804;2022-08-02T09:51:25;6.05;;;2.83;;
57575;SDS011;43412;-33.800;150.804;2022-08-02T09:53:59;6.75;;;2.78;;
57575;SDS011;43412;-33.800;150.804;2022-08-02T09:56:41;7.75;;;4.20;;
57575;SDS011;43412;-33.800;150.804;2022-08-02T09:59:14;7.82;;;4.30;;
57575;SDS011;43412;-33.800;150.804;2022-08-02T10:01:44;16.50;;;6.07;;
57575;SDS011;43412;-33.800;150.804;2022-08-02T10:04:12;9.23;;;5.10;;
57575;SDS011;43412;-33.800;150.804;2022-08-02T10:06:41;14.57;;;6.00;;
57575;SDS011;43412;-33.800;150.804;2022-08-02T10:09:09;11.25;;;5.95;;
57575;SDS011;43412;-33.800;150.804;2022-08-02T10:11:38;10.70;;;5.78;;
57575;SDS011;43412;-33.800;150.804;2022-08-02T10:14:07;10.70;;;5.38;;
57575;SDS011;43412;-33.800;150.804;2022-08-02T10:16:36;10.02;;;4.30;;
57575;SDS011;43412;-33.800;150.804;2022-08-02T10:19:08;8.70;;;5.53;;
57575;SDS011;43412;-33.800;150.804;2022-08-02T10:24:14;7.72;;;4.53;;
57575;SDS011;43412;-33.800;150.804;2022-08-02T10:26:53;12.57;;;6.15;;
57575;SDS011;43412;-33.800;150.804;2022-08-02T10:29:30;9.48;;;5.40;;
57575;SDS011;43412;-33.800;150.804;2022-08-02T10:32:21;9.32;;;5.38;;
57575;SDS011;43412;-33.800;150.804;2022-08-02T10:35:12;10.63;;;5.50;;
57575;SDS011;43412;-33.800;150.804;2022-08-02T10:37:43;10.23;;;5.18;;
57575;SDS011;43412;-33.800;150.804;2022-08-02T10:40:13;9.13;;;4.55;;
57575;SDS011;43412;-33.800;150.804;2022-08-02T10:42:56;12.20;;;5.45;;
57575;SDS011;43412;-33.800;150.804;2022-08-02T10:45:24;10.95;;;4.95;;
57575;SDS011;43412;-33.800;150.804;2022-08-02T10:56:02;7.85;;;6.00;;
57575;SDS011;43412;-33.800;150.804;2022-08-02T10:58:31;14.55;;;7.25;;
57575;SDS011;43412;-33.800;150.804;2022-08-02T11:01:03;8.95;;;7.28;;
57575;SDS011;43412;-33.800;150.804;2022-08-02T11:03:51;9.98;;;5.75;;
57575;SDS011;43412;-33.800;150.804;2022-08-02T11:06:25;10.35;;;3.97;;
57575;SDS011;43412;-33.800;150.804;2022-08-02T11:12:03;7.18;;;4.03;;
57575;SDS011;43412;-33.800;150.804;2022-08-02T11:14:36;3.20;;;2.35;;
57575;SDS011;43412;-33.800;150.804;2022-08-02T11:17:09;5.45;;;2.83;;
57575;SDS011;43412;-33.800;150.804;2022-08-02T11:22:39;6.55;;;2.55;;
57575;SDS011;43412;-33.800;150.804;2022-08-02T11:27:54;8.57;;;2.92;;
57575;SDS011;43412;-33.800;150.804;2022-08-02T11:30:23;6.88;;;2.85;;
57575;SDS011;43412;-33.800;150.804;2022-08-02T11:32:55;5.45;;;2.78;;
57575;SDS011;43412;-33.800;150.804;2022-08-02T11:35:33;7.18;;;2.65;;
57575;SDS011;43412;-33.800;150.804;2022-08-02T11:38:23;3.80;;;2.42;;
57575;SDS011;43412;-33.800;150.804;2022-08-02T11:40:50;6.53;;;3.42;;
57575;SDS011;43412;-33.800;150.804;2022-08-02T11:43:22;7.82;;;2.97;;
57575;SDS011;43412;-33.800;150.804;2022-08-02T11:45:52;6.03;;;3.05;;
57575;SDS011;43412;-33.800;150.804;2022-08-02T11:48:36;6.50;;;3.08;;
57575;SDS011;43412;-33.800;150.804;2022-08-02T11:51:13;3.60;;;2.40;;
57575;SDS011;43412;-33.800;150.804;2022-08-02T11:53:52;8.00;;;3.15;;
57575;SDS011;43412;-33.800;150.804;2022-08-02T11:56:27;5.53;;;2.85;;
57575;SDS011;43412;-33.800;150.804;2022-08-02T11:59:09;5.15;;;1.95;;
57575;SDS011;43412;-33.800;150.804;2022-08-02T12:01:37;4.82;;;2.67;;
57575;SDS011;43412;-33.800;150.804;2022-08-02T12:04:05;3.60;;;1.65;;
57575;SDS011;43412;-33.800;150.804;2022-08-02T12:06:33;2.83;;;1.67;;
57575;SDS011;43412;-33.800;150.804;2022-08-02T12:09:11;4.28;;;2.53;;
57575;SDS011;43412;-33.800;150.804;2022-08-02T12:11:39;2.63;;;1.90;;
57575;SDS011;43412;-33.800;150.804;2022-08-02T12:14:07;4.60;;;2.00;;
57575;SDS011;43412;-33.800;150.804;2022-08-02T12:16:36;3.58;;;2.10;;
57575;SDS011;43412;-33.800;150.804;2022-08-02T12:19:23;4.05;;;2.05;;
57575;SDS011;43412;-33.800;150.804;2022-08-02T12:24:37;4.57;;;2.00;;
57575;SDS011;43412;-33.800;150.804;2022-08-02T12:27:07;4.63;;;1.92;;
57575;SDS011;43412;-33.800;150.804;2022-08-02T12:29:35;5.18;;;3.03;;
57575;SDS011;43412;-33.800;150.804;2022-08-02T12:32:05;7.90;;;3.28;;
57575;SDS011;43412;-33.800;150.804;2022-08-02T12:34:33;7.20;;;3.75;;
57575;SDS011;43412;-33.800;150.804;2022-08-02T12:37:08;10.65;;;5.07;;
57575;SDS011;43412;-33.800;150.804;2022-08-02T12:39:37;8.85;;;5.50;;
57575;SDS011;43412;-33.800;150.804;2022-08-02T12:42:10;11.15;;;5.47;;
57575;SDS011;43412;-33.800;150.804;2022-08-02T12:44:52;10.23;;;4.70;;
57575;SDS011;43412;-33.800;150.804;2022-08-02T12:47:23;8.85;;;4.95;;
57575;SDS011;43412;-33.800;150.804;2022-08-02T12:52:38;8.32;;;5.07;;
57575;SDS011;43412;-33.800;150.804;2022-08-02T12:57:50;15.68;;;6.43;;
57575;SDS011;43412;-33.800;150.804;2022-08-02T13:00:28;8.30;;;4.78;;
57575;SDS011;43412;-33.800;150.804;2022-08-02T13:02:57;10.68;;;5.75;;
57575;SDS011;43412;-33.800;150.804;2022-08-02T13:05:26;11.20;;;6.35;;
57575;SDS011;43412;-33.800;150.804;2022-08-02T13:07:55;12.70;;;6.85;;
57575;SDS011;43412;-33.800;150.804;2022-08-02T13:10:24;9.38;;;6.07;;
57575;SDS011;43412;-33.800;150.804;2022-08-02T13:12:52;10.88;;;5.82;;
57575;SDS011;43412;-33.800;150.804;2022-08-02T13:15:20;11.15;;;6.03;;
57575;SDS011;43412;-33.800;150.804;2022-08-02T13:17:48;9.45;;;5.15;;
57575;SDS011;43412;-33.800;150.804;2022-08-02T13:20:15;9.07;;;4.78;;
57575;SDS011;43412;-33.800;150.804;2022-08-02T13:22:43;7.45;;;4.32;;
57575;SDS011;43412;-33.800;150.804;2022-08-02T13:25:10;5.93;;;4.05;;
57575;SDS011;43412;-33.800;150.804;2022-08-02T13:27:41;7.30;;;4.45;;
57575;SDS011;43412;-33.800;150.804;2022-08-02T13:30:08;7.05;;;3.85;;
57575;SDS011;43412;-33.800;150.804;2022-08-02T13:32:36;8.73;;;4.32;;
57575;SDS011;43412;-33.800;150.804;2022-08-02T13:35:03;7.05;;;3.90;;
57575;SDS011;43412;-33.800;150.804;2022-08-02T13:37:31;6.65;;;3.80;;
57575;SDS011;43412;-33.800;150.804;2022-08-02T13:39:59;8.13;;;3.70;;
57575;SDS011;43412;-33.800;150.804;2022-08-02T13:42:26;11.70;;;3.95;;
57575;SDS011;43412;-33.800;150.804;2022-08-02T13:44:55;7.32;;;4.20;;
57575;SDS011;43412;-33.800;150.804;2022-08-02T13:47:23;6.43;;;3.28;;
57575;SDS011;43412;-33.800;150.804;2022-08-02T13:49:50;5.82;;;3.80;;
57575;SDS011;43412;-33.800;150.804;2022-08-02T13:52:17;4.22;;;2.90;;
57575;SDS011;43412;-33.800;150.804;2022-08-02T13:54:45;8.13;;;4.13;;
57575;SDS011;43412;-33.800;150.804;2022-08-02T13:57:12;6.68;;;3.47;;
57575;SDS011;43412;-33.800;150.804;2022-08-02T13:59:40;4.85;;;3.22;;
57575;SDS011;43412;-33.800;150.804;2022-08-02T14:02:07;7.78;;;4.63;;
57575;SDS011;43412;-33.800;150.804;2022-08-02T14:04:34;4.82;;;3.17;;
57575;SDS011;43412;-33.800;150.804;2022-08-02T14:07:03;6.75;;;3.95;;
57575;SDS011;43412;-33.800;150.804;2022-08-02T14:09:30;5.70;;;3.55;;
57575;SDS011;43412;-33.800;150.804;2022-08-02T14:12:03;6.45;;;3.80;;
57575;SDS011;43412;-33.800;150.804;2022-08-02T14:14:31;8.77;;;4.88;;
57575;SDS011;43412;-33.800;150.804;2022-08-02T14:16:59;6.72;;;4.30;;
57575;SDS011;43412;-33.800;150.804;2022-08-02T14:19:26;5.45;;;2.55;;
57575;SDS011;43412;-33.800;150.804;2022-08-02T14:21:53;3.97;;;2.35;;
57575;SDS011;43412;-33.800;150.804;2022-08-02T14:24:22;4.13;;;2.20;;
57575;SDS011;43412;-33.800;150.804;2022-08-02T14:26:50;2.85;;;1.88;;
57575;SDS011;43412;-33.800;150.804;2022-08-02T14:29:17;4.18;;;2.35;;
57575;SDS011;43412;-33.800;150.804;2022-08-02T14:31:44;4.85;;;2.50;;
57575;SDS011;43412;-33.800;150.804;2022-08-02T14:34:12;5.07;;;2.13;;
57575;SDS011;43412;-33.800;150.804;2022-08-02T14:36:39;3.67;;;1.80;;
57575;SDS011;43412;-33.800;150.804;2022-08-02T14:39:07;4.47;;;2.05;;
57575;SDS011;43412;-33.800;150.804;2022-08-02T14:41:36;5.65;;;2.33;;
57575;SDS011;43412;-33.800;150.804;2022-08-02T14:44:04;3.67;;;2.17;;
57575;SDS011;43412;-33.800;150.804;2022-08-02T14:46:36;6.95;;;2.17;;
57575;SDS011;43412;-33.800;150.804;2022-08-02T14:49:08;4.63;;;2.92;;
57575;SDS011;43412;-33.800;150.804;2022-08-02T14:51:36;5.97;;;2.72;;
57575;SDS011;43412;-33.800;150.804;2022-08-02T14:54:04;4.07;;;3.10;;
57575;SDS011;43412;-33.800;150.804;2022-08-02T14:56:33;4.63;;;2.72;;
57575;SDS011;43412;-33.800;150.804;2022-08-02T14:59:01;5.40;;;3.83;;
57575;SDS011;43412;-33.800;150.804;2022-08-02T15:01:28;4.20;;;2.83;;
57575;SDS011;43412;-33.800;150.804;2022-08-02T15:03:56;2.92;;;2.15;;
57575;SDS011;43412;-33.800;150.804;2022-08-02T15:06:23;8.77;;;2.50;;
57575;SDS011;43412;-33.800;150.804;2022-08-02T15:08:57;7.88;;;2.55;;